Time;durP1;ratioP1;P1;durP2;ratioP2;P2;SDS_P1;SDS_P2;PMS_P1;PMS_P2;Temp;Humidity;BMP_temperature;BMP_pressure;BME280_temperature;BME280_humidity;BME280_pressure;Samples;Min_cycle;Max_cycle;Signal;HPM_P1;HPM_P2
2022/08/19 00:00:34;;;;;;;8.60;8.00;;;;;;;;;;5052029;28;20380;-90
2022/08/19 00:03:00;;;;;;;8.38;7.85;;;;;;;;;;5056427;28;20410;-92
2022/08/19 00:05:26;;;;;;;9.80;9.10;;;;;;;;;;5073021;28;20427;-89
2022/08/19 00:07:52;;;;;;;10.35;9.55;;;;;;;;;;5075989;28;20856;-92
2022/08/19 00:10:18;;;;;;;10.02;9.32;;;;;;;;;;5072075;28;20917;-90
2022/08/19 00:12:44;;;;;;;9.05;8.45;;;;;;;;;;5044446;28;20386;-90
2022/08/19 00:15:12;;;;;;;9.57;8.73;;;;;;;;;;5055804;28;20381;-91
2022/08/19 00:17:42;;;;;;;10.13;9.43;;;;;;;;;;5055780;28;20376;-88
2022/08/19 00:20:10;;;;;;;9.40;8.80;;;;;;;;;;5055634;28;20881;-90
2022/08/19 00:22:36;;;;;;;8.60;8.00;;;;;;;;;;5055827;28;20435;-91
2022/08/19 00:25:02;;;;;;;8.37;7.77;;;;;;;;;;5055468;28;20881;-90
2022/08/19 00:27:28;;;;;;;8.75;8.18;;;;;;;;;;5055580;28;20393;-92
2022/08/19 00:29:54;;;;;;;8.43;7.93;;;;;;;;;;5055496;28;20408;-92
2022/08/19 00:32:21;;;;;;;8.40;7.80;;;;;;;;;;5055575;28;20411;-92
2022/08/19 00:34:47;;;;;;;9.10;8.50;;;;;;;;;;5055522;28;20373;-91
2022/08/19 00:37:13;;;;;;;9.73;8.93;;;;;;;;;;5055530;28;20374;-90
2022/08/19 00:39:39;;;;;;;10.00;9.20;;;;;;;;;;5055411;28;20404;-92
2022/08/19 00:42:06;;;;;;;9.03;8.43;;;;;;;;;;5054808;28;20428;-93
2022/08/19 00:44:32;;;;;;;9.40;8.80;;;;;;;;;;5055491;28;20412;-90
2022/08/19 00:46:59;;;;;;;10.32;9.63;;;;;;;;;;5055371;28;20420;-92
2022/08/19 00:49:31;;;;;;;9.95;9.32;;;;;;;;;;5055243;28;20450;-91
2022/08/19 00:52:14;;;;;;;9.20;8.60;;;;;;;;;;5055548;28;20393;-92
2022/08/19 00:54:40;;;;;;;10.00;9.30;;;;;;;;;;5055130;28;20378;-92
2022/08/19 00:57:09;;;;;;;9.52;8.93;;;;;;;;;;5055281;28;20382;-92
2022/08/19 00:59:37;;;;;;;10.65;9.95;;;;;;;;;;5055111;28;20431;-89
2022/08/19 01:02:03;;;;;;;9.27;8.68;;;;;;;;;;5065578;28;20387;-92
2022/08/19 01:04:29;;;;;;;9.80;9.10;;;;;;;;;;5074588;28;20396;-93
2022/08/19 01:06:56;;;;;;;10.30;9.60;;;;;;;;;;5075194;28;20509;-92
2022/08/19 01:09:22;;;;;;;9.60;9.00;;;;;;;;;;5057005;28;20915;-90
2022/08/19 01:11:48;;;;;;;10.32;9.57;;;;;;;;;;5075229;28;20385;-92
2022/08/19 01:14:15;;;;;;;9.75;9.15;;;;;;;;;;5062080;28;20453;-91
2022/08/19 01:16:42;;;;;;;9.40;8.80;;;;;;;;;;5073692;28;20376;-93
2022/08/19 01:19:18;;;;;;;10.13;9.43;;;;;;;;;;5075118;28;20857;-92
2022/08/19 01:21:56;;;;;;;10.35;9.52;;;;;;;;;;5051999;28;20421;-91
2022/08/19 01:24:22;;;;;;;9.80;9.20;;;;;;;;;;5059235;28;20853;-93
2022/08/19 01:26:48;;;;;;;10.60;9.90;;;;;;;;;;5060762;28;20463;-92
2022/08/19 01:29:14;;;;;;;11.25;10.55;;;;;;;;;;5074841;28;20379;-91
2022/08/19 01:31:40;;;;;;;12.82;11.85;;;;;;;;;;5042896;28;20412;-94
2022/08/19 01:34:06;;;;;;;12.30;11.50;;;;;;;;;;5074754;28;20376;-92
2022/08/19 01:36:34;;;;;;;13.27;12.38;;;;;;;;;;5060750;28;20805;-91
2022/08/19 01:39:01;;;;;;;14.13;13.02;;;;;;;;;;5068124;28;20412;-93
2022/08/19 01:41:27;;;;;;;13.82;12.82;;;;;;;;;;5054697;28;20462;-91
2022/08/19 01:43:55;;;;;;;12.57;11.75;;;;;;;;;;5054363;28;20374;-90
2022/08/19 01:46:22;;;;;;;13.15;12.15;;;;;;;;;;5065907;28;20922;-92
2022/08/19 01:48:48;;;;;;;12.48;11.57;;;;;;;;;;5060198;28;20916;-92
2022/08/19 01:51:14;;;;;;;11.82;11.02;;;;;;;;;;5061519;28;20445;-92
2022/08/19 01:53:40;;;;;;;14.30;13.20;;;;;;;;;;5058405;28;20797;-91
2022/08/19 01:56:07;;;;;;;14.38;13.18;;;;;;;;;;5068279;28;20388;-91
2022/08/19 01:58:36;;;;;;;15.07;13.93;;;;;;;;;;5054420;28;20366;-92
2022/08/19 02:01:03;;;;;;;14.93;13.73;;;;;;;;;;5070264;28;20380;-92
2022/08/19 02:03:29;;;;;;;14.57;13.48;;;;;;;;;;5052175;28;20462;-92
2022/08/19 02:05:59;;;;;;;16.55;15.25;;;;;;;;;;5040110;28;20403;-90
2022/08/19 02:08:27;;;;;;;14.73;13.57;;;;;;;;;;5073964;28;20379;-91
2022/08/19 02:10:53;;;;;;;15.10;13.90;;;;;;;;;;5074008;28;20508;-91
2022/08/19 02:13:20;;;;;;;15.10;13.90;;;;;;;;;;5059643;28;20411;-91
2022/08/19 02:15:46;;;;;;;14.95;13.85;;;;;;;;;;5051457;28;20760;-94
2022/08/19 02:18:12;;;;;;;15.30;14.10;;;;;;;;;;5049682;28;20483;-91
2022/08/19 02:20:38;;;;;;;15.23;14.02;;;;;;;;;;5043130;28;20436;-90
2022/08/19 02:23:05;;;;;;;16.38;15.15;;;;;;;;;;5048190;28;20382;-93
2022/08/19 02:25:31;;;;;;;15.52;14.30;;;;;;;;;;5052555;28;20442;-92
2022/08/19 02:27:57;;;;;;;15.38;14.15;;;;;;;;;;5039301;28;20384;-91
2022/08/19 02:30:24;;;;;;;17.38;15.82;;;;;;;;;;5053126;28;20920;-93
2022/08/19 02:32:50;;;;;;;18.02;16.50;;;;;;;;;;5052750;28;20382;-92
2022/08/19 02:35:17;;;;;;;17.45;16.05;;;;;;;;;;5053497;28;20389;-92
2022/08/19 02:40:28;;;;;;;16.85;15.55;;;;;;;;;;5048078;28;20397;-93
2022/08/19 02:42:54;;;;;;;16.50;15.20;;;;;;;;;;5053368;28;20407;-92
2022/08/19 02:45:20;;;;;;;16.23;15.02;;;;;;;;;;5052891;28;20842;-91
2022/08/19 02:47:47;;;;;;;15.98;14.80;;;;;;;;;;5044493;28;20403;-90
2022/08/19 02:50:14;;;;;;;16.00;14.80;;;;;;;;;;5048174;28;20401;-91
2022/08/19 02:52:40;;;;;;;16.65;15.35;;;;;;;;;;5052895;28;20427;-92
2022/08/19 02:55:06;;;;;;;16.77;15.50;;;;;;;;;;5052991;28;20464;-90
2022/08/19 02:57:32;;;;;;;17.98;16.48;;;;;;;;;;5052821;28;20378;-92
2022/08/19 02:59:58;;;;;;;17.90;16.42;;;;;;;;;;5053034;28;20386;-90
2022/08/19 03:02:24;;;;;;;19.20;17.63;;;;;;;;;;5039387;28;20387;-92
2022/08/19 03:04:51;;;;;;;17.60;16.20;;;;;;;;;;5046635;28;20609;-93
2022/08/19 03:07:18;;;;;;;16.17;15.02;;;;;;;;;;5044398;28;20474;-93
2022/08/19 03:09:44;;;;;;;17.58;16.25;;;;;;;;;;5052585;28;20901;-91
2022/08/19 03:12:10;;;;;;;17.05;15.80;;;;;;;;;;5052666;28;20378;-91
2022/08/19 03:14:37;;;;;;;18.20;16.73;;;;;;;;;;5054539;28;20431;-91
2022/08/19 03:17:04;;;;;;;17.67;16.30;;;;;;;;;;5064900;28;20430;-92
2022/08/19 03:19:31;;;;;;;17.83;16.48;;;;;;;;;;5066950;28;20391;-92
2022/08/19 03:21:57;;;;;;;17.92;16.52;;;;;;;;;;5072900;28;20379;-92
2022/08/19 03:24:24;;;;;;;16.55;15.25;;;;;;;;;;5072304;28;20376;-91
2022/08/19 03:26:51;;;;;;;17.08;15.68;;;;;;;;;;5068229;28;20382;-91
2022/08/19 03:29:18;;;;;;;16.58;15.27;;;;;;;;;;5052690;28;20437;-89
2022/08/19 03:31:44;;;;;;;16.53;15.23;;;;;;;;;;5038286;28;20375;-91
2022/08/19 03:34:11;;;;;;;16.63;15.32;;;;;;;;;;5052296;28;20378;-90
2022/08/19 03:36:38;;;;;;;17.27;15.95;;;;;;;;;;5052203;28;20378;-93
2022/08/19 03:39:04;;;;;;;16.70;15.50;;;;;;;;;;5052231;28;20739;-90
2022/08/19 03:41:36;;;;;;;17.20;15.90;;;;;;;;;;5051689;28;20527;-92
2022/08/19 03:44:04;;;;;;;15.55;14.35;;;;;;;;;;5052497;28;20846;-91
2022/08/19 03:46:32;;;;;;;14.98;13.88;;;;;;;;;;5052554;28;20374;-92
2022/08/19 03:48:59;;;;;;;15.65;14.45;;;;;;;;;;5052496;28;20842;-91
2022/08/19 03:51:32;;;;;;;16.17;14.87;;;;;;;;;;5052156;28;20564;-91
2022/08/19 03:54:00;;;;;;;16.13;14.93;;;;;;;;;;5051979;28;20382;-91
2022/08/19 03:56:27;;;;;;;15.95;14.70;;;;;;;;;;5052640;28;20377;-90
2022/08/19 03:58:54;;;;;;;16.33;15.10;;;;;;;;;;5051859;28;20384;-92
2022/08/19 04:01:21;;;;;;;16.70;15.30;;;;;;;;;;5070976;28;20745;-92
2022/08/19 04:03:47;;;;;;;16.02;14.85;;;;;;;;;;5061259;28;20388;-93
2022/08/19 04:06:14;;;;;;;15.55;14.20;;;;;;;;;;5068718;28;20819;-90
2022/08/19 04:08:40;;;;;;;15.43;14.18;;;;;;;;;;5061594;28;20398;-90
2022/08/19 04:11:07;;;;;;;15.70;14.38;;;;;;;;;;5062071;28;20407;-91
2022/08/19 04:13:34;;;;;;;15.18;13.88;;;;;;;;;;5071960;28;20386;-92
2022/08/19 04:16:00;;;;;;;17.37;15.90;;;;;;;;;;5058578;28;20381;-90
2022/08/19 04:18:29;;;;;;;17.10;15.60;;;;;;;;;;5043438;28;20789;-90
2022/08/19 04:20:56;;;;;;;17.10;15.80;;;;;;;;;;5072038;28;20927;-91
2022/08/19 04:23:23;;;;;;;17.05;15.75;;;;;;;;;;5055442;28;20404;-90
2022/08/19 04:25:49;;;;;;;16.60;15.32;;;;;;;;;;5046037;28;20393;-91
2022/08/19 04:28:15;;;;;;;17.15;15.75;;;;;;;;;;5041852;28;20389;-92
2022/08/19 04:30:43;;;;;;;17.77;16.40;;;;;;;;;;5051937;28;20459;-92
2022/08/19 04:33:10;;;;;;;16.27;14.98;;;;;;;;;;5050897;28;20382;-92
2022/08/19 04:35:40;;;;;;;18.20;16.63;;;;;;;;;;5051927;28;20425;-91
2022/08/19 04:38:06;;;;;;;16.63;15.23;;;;;;;;;;5051144;28;20374;-90
2022/08/19 04:43:17;;;;;;;16.35;15.10;;;;;;;;;;5065546;28;20737;-90
2022/08/19 04:45:43;;;;;;;17.40;16.00;;;;;;;;;;5071413;28;20384;-90
2022/08/19 04:48:10;;;;;;;19.80;18.15;;;;;;;;;;5071627;28;20423;-91
2022/08/19 04:50:36;;;;;;;18.77;17.30;;;;;;;;;;5057398;28;20742;-94
2022/08/19 04:53:02;;;;;;;18.67;17.05;;;;;;;;;;5068727;28;20380;-92
2022/08/19 04:55:28;;;;;;;19.70;17.92;;;;;;;;;;5067776;28;20462;-92
2022/08/19 04:57:55;;;;;;;19.63;17.92;;;;;;;;;;5075503;28;20498;-90
2022/08/19 05:00:21;;;;;;;20.93;19.13;;;;;;;;;;5075836;28;20391;-92
2022/08/19 05:02:49;;;;;;;19.17;17.63;;;;;;;;;;5075175;28;20454;-89
2022/08/19 05:05:15;;;;;;;18.58;17.10;;;;;;;;;;5075004;28;20392;-90
2022/08/19 05:07:41;;;;;;;19.10;17.60;;;;;;;;;;5060933;28;20388;-93
2022/08/19 05:10:07;;;;;;;20.23;18.45;;;;;;;;;;5074868;28;20404;-91
2022/08/19 05:12:34;;;;;;;20.50;18.65;;;;;;;;;;5074855;28;20387;-91
2022/08/19 05:15:00;;;;;;;21.08;19.23;;;;;;;;;;5074614;28;20394;-91
2022/08/19 05:17:27;;;;;;;20.27;18.60;;;;;;;;;;5075123;28;20379;-89
2022/08/19 05:22:37;;;;;;;21.48;19.48;;;;;;;;;;5075085;28;20884;-93
2022/08/19 05:25:05;;;;;;;19.88;18.05;;;;;;;;;;5061363;28;20400;-93
2022/08/19 05:27:32;;;;;;;20.63;18.92;;;;;;;;;;5058457;28;20374;-94
2022/08/19 05:29:58;;;;;;;21.77;19.83;;;;;;;;;;5054461;28;20409;-91
2022/08/19 05:32:24;;;;;;;21.15;19.10;;;;;;;;;;5054490;28;20382;-91
2022/08/19 05:34:50;;;;;;;20.10;18.30;;;;;;;;;;5054350;28;20383;-89
2022/08/19 05:37:16;;;;;;;20.42;18.63;;;;;;;;;;5054060;28;20385;-89
2022/08/19 05:39:43;;;;;;;18.77;17.25;;;;;;;;;;5053097;28;20809;-88
2022/08/19 05:42:10;;;;;;;18.85;17.35;;;;;;;;;;5054343;28;20867;-88
2022/08/19 05:44:39;;;;;;;20.30;18.50;;;;;;;;;;5054371;28;20382;-89
2022/08/19 05:47:08;;;;;;;20.33;18.60;;;;;;;;;;5054041;28;20871;-87
2022/08/19 05:49:34;;;;;;;19.85;18.25;;;;;;;;;;5053981;28;20410;-89
2022/08/19 05:52:03;;;;;;;19.38;17.80;;;;;;;;;;5055096;28;20882;-87
2022/08/19 05:54:29;;;;;;;20.02;18.33;;;;;;;;;;5073910;28;20461;-89
2022/08/19 05:56:55;;;;;;;18.23;16.75;;;;;;;;;;5055733;28;20457;-90
2022/08/19 05:59:23;;;;;;;18.80;17.37;;;;;;;;;;5056393;28;20389;-90
2022/08/19 06:01:50;;;;;;;22.30;20.40;;;;;;;;;;5073983;28;20380;-88
2022/08/19 06:04:18;;;;;;;23.15;20.95;;;;;;;;;;5044488;28;20391;-89
2022/08/19 06:06:44;;;;;;;23.27;21.17;;;;;;;;;;5053939;28;20464;-91
2022/08/19 06:09:10;;;;;;;23.05;21.05;;;;;;;;;;5059090;28;20433;-93
2022/08/19 06:11:38;;;;;;;24.33;22.13;;;;;;;;;;5073525;28;20396;-88
2022/08/19 06:14:08;;;;;;;25.67;23.45;;;;;;;;;;5073902;28;20394;-89
2022/08/19 06:16:34;;;;;;;26.15;23.65;;;;;;;;;;5063888;28;20372;-89
2022/08/19 06:19:01;;;;;;;25.27;22.98;;;;;;;;;;5057436;28;20809;-91
2022/08/19 06:21:28;;;;;;;25.23;23.00;;;;;;;;;;5073782;28;20384;-91
2022/08/19 06:23:55;;;;;;;24.05;21.92;;;;;;;;;;5073682;28;20387;-93
2022/08/19 06:26:21;;;;;;;25.58;23.17;;;;;;;;;;5041204;28;20389;-91
2022/08/19 06:28:48;;;;;;;24.90;22.80;;;;;;;;;;5040500;28;20852;-90
2022/08/19 06:31:20;;;;;;;23.48;21.38;;;;;;;;;;5040882;28;20896;-91
2022/08/19 06:33:46;;;;;;;22.40;20.60;;;;;;;;;;5066960;28;20428;-90
2022/08/19 06:36:26;;;;;;;22.77;20.88;;;;;;;;;;5042354;28;20386;-92
2022/08/19 06:38:52;;;;;;;21.02;19.30;;;;;;;;;;5067385;28;20378;-91
2022/08/19 06:41:18;;;;;;;20.88;19.15;;;;;;;;;;5054184;28;20378;-92
2022/08/19 06:43:44;;;;;;;21.73;20.02;;;;;;;;;;5039853;28;20384;-90
2022/08/19 06:46:12;;;;;;;23.30;21.35;;;;;;;;;;5053048;28;20468;-91
2022/08/19 06:48:38;;;;;;;21.70;19.95;;;;;;;;;;5045328;28;20397;-91
2022/08/19 06:51:05;;;;;;;22.35;20.45;;;;;;;;;;5053062;28;20409;-91
2022/08/19 06:53:31;;;;;;;25.58;23.30;;;;;;;;;;5053276;28;20381;-93
2022/08/19 06:56:01;;;;;;;24.45;22.35;;;;;;;;;;5064882;28;20944;-91
2022/08/19 06:58:29;;;;;;;21.38;19.48;;;;;;;;;;5052781;28;20377;-90
2022/08/19 07:00:55;;;;;;;22.20;20.30;;;;;;;;;;5053456;28;20381;-91
2022/08/19 07:03:21;;;;;;;22.67;20.48;;;;;;;;;;5053169;28;20920;-90
2022/08/19 07:05:47;;;;;;;23.75;21.65;;;;;;;;;;5052753;28;20405;-91
2022/08/19 07:08:13;;;;;;;24.20;22.10;;;;;;;;;;5052815;28;20712;-90
2022/08/19 07:10:43;;;;;;;25.55;23.23;;;;;;;;;;5041868;28;20764;-91
2022/08/19 07:13:09;;;;;;;27.23;24.70;;;;;;;;;;5051365;28;20386;-92
2022/08/19 07:15:37;;;;;;;27.00;24.42;;;;;;;;;;5052843;28;20853;-92
2022/08/19 07:18:03;;;;;;;25.73;23.38;;;;;;;;;;5043789;28;20430;-92
2022/08/19 07:20:29;;;;;;;25.70;23.52;;;;;;;;;;5041224;28;20843;-91
2022/08/19 07:22:55;;;;;;;27.33;24.75;;;;;;;;;;5060833;28;20837;-92
2022/08/19 07:25:21;;;;;;;27.20;24.63;;;;;;;;;;5072705;28;20388;-92
2022/08/19 07:27:50;;;;;;;25.88;23.42;;;;;;;;;;5060070;28;20504;-91
2022/08/19 07:30:16;;;;;;;23.90;21.80;;;;;;;;;;5061912;28;20755;-91
2022/08/19 07:32:42;;;;;;;25.48;23.27;;;;;;;;;;5049808;28;20397;-90
2022/08/19 07:35:09;;;;;;;24.80;22.50;;;;;;;;;;5052210;28;20381;-89
2022/08/19 07:37:36;;;;;;;25.60;23.35;;;;;;;;;;5052391;28;20726;-88
2022/08/19 07:40:03;;;;;;;26.05;23.67;;;;;;;;;;5052431;28;20377;-89
2022/08/19 07:42:29;;;;;;;24.98;22.67;;;;;;;;;;5053184;28;20385;-88
2022/08/19 07:44:55;;;;;;;25.70;23.30;;;;;;;;;;5053112;28;20507;-89
2022/08/19 07:47:22;;;;;;;26.58;24.17;;;;;;;;;;5051991;28;20883;-91
2022/08/19 07:49:48;;;;;;;26.63;24.20;;;;;;;;;;5051780;28;20401;-89
2022/08/19 07:52:16;;;;;;;27.43;24.83;;;;;;;;;;5049883;28;20374;-89
2022/08/19 07:54:42;;;;;;;25.10;22.80;;;;;;;;;;5052308;28;20374;-90
2022/08/19 07:57:08;;;;;;;27.58;24.98;;;;;;;;;;5051509;28;20385;-90
2022/08/19 07:59:35;;;;;;;26.43;24.03;;;;;;;;;;5041858;28;20441;-90
2022/08/19 08:02:02;;;;;;;26.83;24.13;;;;;;;;;;5052092;28;20383;-89
2022/08/19 08:09:59;;;;;;;26.58;24.08;;;;;;;;;;5066119;28;20482;-89
2022/08/19 08:12:47;;;;;;;24.83;22.60;;;;;;;;;;5043095;28;20383;-90
2022/08/19 08:15:18;;;;;;;25.17;22.70;;;;;;;;;;5063728;22;20431;-87
2022/08/19 08:17:45;;;;;;;25.77;23.30;;;;;;;;;;5037816;28;20390;-85
2022/08/19 08:23:25;;;;;;;25.45;22.95;;;;;;;;;;5052184;28;20399;-86
2022/08/19 08:25:51;;;;;;;27.88;25.17;;;;;;;;;;5033085;28;20383;-88
2022/08/19 08:28:18;;;;;;;27.52;24.73;;;;;;;;;;5036322;28;20935;-87
2022/08/19 08:30:47;;;;;;;29.07;25.93;;;;;;;;;;5036010;28;20411;-86
2022/08/19 08:33:13;;;;;;;30.52;27.35;;;;;;;;;;5021633;28;20391;-86
2022/08/19 08:35:41;;;;;;;28.10;25.38;;;;;;;;;;5016243;28;20442;-88
2022/08/19 08:38:07;;;;;;;27.52;24.73;;;;;;;;;;5016466;28;20781;-86
2022/08/19 08:40:39;;;;;;;27.47;24.83;;;;;;;;;;5034490;28;20443;-87
2022/08/19 08:43:21;;;;;;;27.55;24.85;;;;;;;;;;5024291;28;20421;-86
2022/08/19 08:45:56;;;;;;;29.23;26.13;;;;;;;;;;5022942;28;20371;-85
2022/08/19 08:48:33;;;;;;;30.27;27.17;;;;;;;;;;5035930;28;20860;-86
2022/08/19 08:51:00;;;;;;;30.45;27.27;;;;;;;;;;5035863;28;20449;-86
2022/08/19 08:53:26;;;;;;;28.77;25.85;;;;;;;;;;5035662;28;20386;-85
2022/08/19 08:55:53;;;;;;;28.17;25.35;;;;;;;;;;5035586;28;20375;-85
2022/08/19 08:58:28;;;;;;;28.13;25.30;;;;;;;;;;5035922;28;20437;-86
2022/08/19 09:00:54;;;;;;;27.27;24.57;;;;;;;;;;5035075;28;20398;-88
2022/08/19 09:03:22;;;;;;;25.75;23.40;;;;;;;;;;5033257;28;20481;-87
2022/08/19 09:05:55;;;;;;;27.63;24.83;;;;;;;;;;5032136;28;20394;-85
2022/08/19 09:08:29;;;;;;;28.27;25.38;;;;;;;;;;5035523;28;20388;-84
2022/08/19 09:10:57;;;;;;;29.00;26.00;;;;;;;;;;5034949;28;20418;-84
2022/08/19 09:13:27;;;;;;;26.33;23.67;;;;;;;;;;5035012;28;20417;-85
2022/08/19 09:15:57;;;;;;;28.58;25.67;;;;;;;;;;5035446;28;20391;-84
2022/08/19 09:18:24;;;;;;;27.83;25.13;;;;;;;;;;5033966;28;20375;-85
2022/08/19 09:20:50;;;;;;;26.67;23.98;;;;;;;;;;5035491;28;20379;-85
2022/08/19 09:23:16;;;;;;;26.85;24.10;;;;;;;;;;5035321;28;20379;-85
2022/08/19 09:25:42;;;;;;;28.13;25.30;;;;;;;;;;5035216;28;20403;-85
2022/08/19 09:28:09;;;;;;;29.42;26.45;;;;;;;;;;5035033;28;20382;-86
2022/08/19 09:30:41;;;;;;;28.48;25.63;;;;;;;;;;5035232;28;20410;-86
2022/08/19 09:33:07;;;;;;;29.60;26.58;;;;;;;;;;5035104;28;20860;-86
2022/08/19 09:35:35;;;;;;;29.73;26.65;;;;;;;;;;5035469;28;20382;-86
2022/08/19 09:38:01;;;;;;;29.30;26.45;;;;;;;;;;5035036;28;20383;-86
2022/08/19 09:40:28;;;;;;;30.30;27.10;;;;;;;;;;5034782;28;20476;-86
2022/08/19 09:42:54;;;;;;;29.42;26.42;;;;;;;;;;5034946;28;20383;-86
2022/08/19 09:45:21;;;;;;;30.83;27.63;;;;;;;;;;5034590;28;20399;-85
2022/08/19 09:47:48;;;;;;;29.95;26.83;;;;;;;;;;5035132;28;20379;-85
2022/08/19 09:50:14;;;;;;;31.80;28.55;;;;;;;;;;5034948;28;20411;-86
2022/08/19 09:52:41;;;;;;;33.47;29.98;;;;;;;;;;5034293;28;20387;-86
2022/08/19 09:55:09;;;;;;;37.03;31.33;;;;;;;;;;5016805;28;20438;-86
2022/08/19 09:57:35;;;;;;;35.88;30.73;;;;;;;;;;5034553;28;20490;-85
2022/08/19 10:00:01;;;;;;;32.88;29.25;;;;;;;;;;5035229;28;20383;-87
2022/08/19 10:02:27;;;;;;;31.85;28.40;;;;;;;;;;5034834;28;20387;-86
2022/08/19 10:07:38;;;;;;;33.33;29.38;;;;;;;;;;5025629;28;20407;-85
2022/08/19 10:10:06;;;;;;;31.98;28.65;;;;;;;;;;5029114;28;20422;-86
2022/08/19 10:12:33;;;;;;;28.98;26.08;;;;;;;;;;5035841;28;20379;-91
2022/08/19 10:14:59;;;;;;;31.40;28.10;;;;;;;;;;5018503;28;20392;-87
2022/08/19 10:17:25;;;;;;;37.20;31.50;;;;;;;;;;5027974;28;20384;-86
2022/08/19 10:19:51;;;;;;;40.47;33.40;;;;;;;;;;5020757;28;20388;-88
2022/08/19 10:22:18;;;;;;;39.40;33.77;;;;;;;;;;5016366;28;20384;-88
2022/08/19 10:24:44;;;;;;;40.03;32.70;;;;;;;;;;5026155;28;20758;-87
2022/08/19 10:27:10;;;;;;;35.45;30.98;;;;;;;;;;5030115;28;20396;-90
2022/08/19 10:29:36;;;;;;;36.83;31.48;;;;;;;;;;5016261;28;20392;-88
2022/08/19 10:32:04;;;;;;;30.40;27.23;;;;;;;;;;5016441;28;20456;-91
2022/08/19 10:34:31;;;;;;;31.77;27.98;;;;;;;;;;5021039;28;20396;-87
2022/08/19 10:36:57;;;;;;;29.73;26.73;;;;;;;;;;5015558;28;20381;-89
2022/08/19 10:39:23;;;;;;;27.23;24.55;;;;;;;;;;5029082;28;20852;-88
2022/08/19 10:41:49;;;;;;;31.13;27.83;;;;;;;;;;5034023;28;20883;-86
2022/08/19 10:44:16;;;;;;;32.15;28.75;;;;;;;;;;5034561;28;20409;-89
2022/08/19 10:46:44;;;;;;;32.67;29.15;;;;;;;;;;5035997;28;20381;-90
2022/08/19 10:49:11;;;;;;;36.40;30.02;;;;;;;;;;5029298;28;20468;-85
2022/08/19 10:56:50;;;;;;;33.80;29.92;;;;;;;;;;5030907;28;20426;-88
2022/08/19 10:57:09;;;;;;;36.35;30.10;;;;;;;;;;5033257;28;20411;-86
2022/08/19 10:59:35;;;;;;;34.97;30.33;;;;;;;;;;5033783;28;20464;-87
2022/08/19 11:02:02;;;;;;;35.00;31.05;;;;;;;;;;5033120;28;20386;-87
2022/08/19 11:04:28;;;;;;;36.45;30.98;;;;;;;;;;5033530;28;20383;-87
2022/08/19 11:06:54;;;;;;;36.38;31.02;;;;;;;;;;5033769;28;20375;-87
2022/08/19 11:09:23;;;;;;;36.13;31.60;;;;;;;;;;5033148;28;20745;-89
2022/08/19 11:11:50;;;;;;;36.88;32.10;;;;;;;;;;5033230;28;20414;-88
2022/08/19 11:14:18;;;;;;;34.87;31.17;;;;;;;;;;5033486;28;20432;-86
2022/08/19 11:16:44;;;;;;;38.15;32.80;;;;;;;;;;5032599;28;20411;-85
2022/08/19 11:19:11;;;;;;;41.60;33.47;;;;;;;;;;5033340;28;20387;-86
2022/08/19 11:21:39;;;;;;;38.03;33.00;;;;;;;;;;5032721;28;20391;-87
2022/08/19 11:24:07;;;;;;;42.00;33.40;;;;;;;;;;5032795;28;20391;-88
2022/08/19 11:26:33;;;;;;;39.75;32.40;;;;;;;;;;5032266;28;20391;-87
2022/08/19 11:29:00;;;;;;;35.85;30.80;;;;;;;;;;5032845;28;20383;-87
2022/08/19 11:31:27;;;;;;;36.38;31.30;;;;;;;;;;5032363;28;20422;-87
2022/08/19 11:33:53;;;;;;;37.43;32.13;;;;;;;;;;5032626;28;20379;-87
2022/08/19 11:36:20;;;;;;;37.38;32.53;;;;;;;;;;5032524;28;20410;-86
2022/08/19 11:38:48;;;;;;;37.55;32.58;;;;;;;;;;5032218;28;20409;-86
2022/08/19 11:41:15;;;;;;;41.45;35.08;;;;;;;;;;5031093;28;20461;-88
2022/08/19 11:43:41;;;;;;;41.75;34.72;;;;;;;;;;5031907;28;20525;-86
2022/08/19 11:46:08;;;;;;;46.22;37.08;;;;;;;;;;5031883;28;20413;-86
2022/08/19 11:48:34;;;;;;;42.83;36.20;;;;;;;;;;5031776;28;20414;-86
2022/08/19 11:51:05;;;;;;;50.78;39.80;;;;;;;;;;5032650;28;20419;-88
2022/08/19 11:53:31;;;;;;;53.83;40.10;;;;;;;;;;5032974;28;20379;-88
2022/08/19 11:55:57;;;;;;;54.85;40.40;;;;;;;;;;5032596;28;20470;-86
2022/08/19 11:58:24;;;;;;;52.30;40.92;;;;;;;;;;5031456;28;20409;-87
2022/08/19 12:00:51;;;;;;;48.67;39.47;;;;;;;;;;5032075;28;20391;-86
2022/08/19 12:03:18;;;;;;;49.88;39.50;;;;;;;;;;5030237;28;20772;-87
2022/08/19 12:05:44;;;;;;;51.97;39.30;;;;;;;;;;5033602;28;20398;-86
2022/08/19 12:08:12;;;;;;;57.70;42.78;;;;;;;;;;5035324;28;20387;-86
2022/08/19 12:10:38;;;;;;;49.60;39.40;;;;;;;;;;5034783;28;20422;-86
2022/08/19 12:13:04;;;;;;;52.92;41.35;;;;;;;;;;5035394;28;20387;-87
2022/08/19 12:15:30;;;;;;;48.05;40.35;;;;;;;;;;5034047;28;20391;-87
2022/08/19 12:17:57;;;;;;;53.90;41.53;;;;;;;;;;5035883;28;20406;-86
2022/08/19 12:20:24;;;;;;;51.97;41.43;;;;;;;;;;5036071;28;20433;-86
2022/08/19 12:22:51;;;;;;;49.42;40.35;;;;;;;;;;5035781;28;20466;-85
2022/08/19 12:25:17;;;;;;;53.58;41.22;;;;;;;;;;5036388;28;20386;-86
2022/08/19 12:27:44;;;;;;;52.28;40.80;;;;;;;;;;5035549;28;20418;-86
2022/08/19 12:30:11;;;;;;;53.40;41.90;;;;;;;;;;5035775;28;20403;-86
2022/08/19 12:32:38;;;;;;;52.50;41.33;;;;;;;;;;5036343;28;20383;-86
2022/08/19 12:35:04;;;;;;;54.10;41.90;;;;;;;;;;5036037;28;20478;-85
2022/08/19 12:37:32;;;;;;;53.90;42.05;;;;;;;;;;5035344;28;20433;-86
2022/08/19 12:39:58;;;;;;;54.53;41.72;;;;;;;;;;5035634;28;20390;-85
2022/08/19 12:42:24;;;;;;;55.40;41.70;;;;;;;;;;5035614;28;20383;-86
2022/08/19 12:44:51;;;;;;;47.77;38.57;;;;;;;;;;5023410;28;20421;-86
2022/08/19 12:47:18;;;;;;;45.60;38.42;;;;;;;;;;5016048;28;20861;-86
2022/08/19 12:49:44;;;;;;;43.97;37.55;;;;;;;;;;5016211;28;20415;-86
2022/08/19 12:52:10;;;;;;;45.30;38.77;;;;;;;;;;5016062;28;20453;-86
2022/08/19 12:54:37;;;;;;;44.42;36.97;;;;;;;;;;5015864;28;20476;-86
2022/08/19 12:57:07;;;;;;;50.47;40.03;;;;;;;;;;5015005;28;20380;-85
2022/08/19 12:59:34;;;;;;;53.38;41.58;;;;;;;;;;5015667;28;20855;-86
2022/08/19 13:02:00;;;;;;;50.03;40.45;;;;;;;;;;5025047;28;20387;-87
2022/08/19 13:04:26;;;;;;;45.03;38.00;;;;;;;;;;5019332;28;20529;-86
2022/08/19 13:06:52;;;;;;;45.70;38.88;;;;;;;;;;5015589;28;20424;-86
2022/08/19 13:09:18;;;;;;;44.63;38.17;;;;;;;;;;5019133;28;20392;-86
2022/08/19 13:11:44;;;;;;;44.42;38.25;;;;;;;;;;5033725;28;20421;-86
2022/08/19 13:14:11;;;;;;;49.38;40.53;;;;;;;;;;5033967;28;20387;-87
2022/08/19 13:16:37;;;;;;;53.47;42.30;;;;;;;;;;5034390;28;20378;-86
2022/08/19 13:19:05;;;;;;;55.30;43.23;;;;;;;;;;5034329;28;20549;-86
2022/08/19 13:21:31;;;;;;;52.45;42.05;;;;;;;;;;5034532;28;20375;-86
2022/08/19 13:23:57;;;;;;;52.78;43.38;;;;;;;;;;5034280;28;20481;-86
2022/08/19 13:26:24;;;;;;;56.42;43.80;;;;;;;;;;5034486;28;20379;-86
2022/08/19 13:34:26;;;;;;;61.83;47.28;;;;;;;;;;5034589;28;20374;-86
2022/08/19 13:36:53;;;;;;;59.10;46.33;;;;;;;;;;5034624;28;20411;-86
2022/08/19 13:39:20;;;;;;;57.63;45.22;;;;;;;;;;5033354;28;20391;-86
2022/08/19 13:41:47;;;;;;;56.65;45.55;;;;;;;;;;5034206;28;20387;-86
2022/08/19 13:44:14;;;;;;;56.30;44.70;;;;;;;;;;5034147;28;20848;-87
2022/08/19 13:46:44;;;;;;;57.53;45.55;;;;;;;;;;5034001;28;20475;-86
2022/08/19 13:49:10;;;;;;;54.57;45.23;;;;;;;;;;5032916;28;20449;-86
2022/08/19 13:51:36;;;;;;;59.10;45.15;;;;;;;;;;5034048;28;20426;-86
2022/08/19 13:54:02;;;;;;;49.42;42.90;;;;;;;;;;5033945;28;20857;-86
2022/08/19 13:56:28;;;;;;;51.08;42.55;;;;;;;;;;5034587;28;20379;-87
2022/08/19 13:58:54;;;;;;;46.63;41.13;;;;;;;;;;5031402;28;20371;-87
2022/08/19 14:01:21;;;;;;;54.27;44.30;;;;;;;;;;5029996;28;20377;-86
2022/08/19 14:03:47;;;;;;;53.63;43.83;;;;;;;;;;5014543;28;20477;-86
2022/08/19 14:06:13;;;;;;;51.45;44.25;;;;;;;;;;5021675;28;21478;-86
2022/08/19 14:08:41;;;;;;;50.17;43.25;;;;;;;;;;5034864;28;20383;-86
2022/08/19 14:11:07;;;;;;;53.03;45.00;;;;;;;;;;5034247;28;20411;-86
2022/08/19 14:13:33;;;;;;;53.90;44.00;;;;;;;;;;5034121;28;20399;-85
2022/08/19 14:15:59;;;;;;;54.05;45.08;;;;;;;;;;5034427;28;20417;-86
2022/08/19 14:18:26;;;;;;;58.45;46.13;;;;;;;;;;5033178;28;20383;-85
2022/08/19 14:20:52;;;;;;;61.53;49.00;;;;;;;;;;5034083;28;20466;-85
2022/08/19 14:23:19;;;;;;;67.55;50.17;;;;;;;;;;5033615;28;20406;-86
2022/08/19 14:25:46;;;;;;;60.40;48.00;;;;;;;;;;5033684;28;20391;-85
2022/08/19 14:28:12;;;;;;;55.75;46.47;;;;;;;;;;5033834;28;20482;-85
2022/08/19 14:30:38;;;;;;;58.80;46.78;;;;;;;;;;5033548;28;20502;-86
2022/08/19 14:33:04;;;;;;;55.42;46.45;;;;;;;;;;5025739;28;20395;-86
2022/08/19 14:35:34;;;;;;;56.17;47.00;;;;;;;;;;5032414;28;20398;-86
2022/08/19 14:38:00;;;;;;;58.53;47.50;;;;;;;;;;5025628;28;20383;-86
2022/08/19 14:40:28;;;;;;;63.15;48.72;;;;;;;;;;5033330;28;20383;-85
2022/08/19 14:42:59;;;;;;;58.88;47.50;;;;;;;;;;5033866;28;20935;-86
2022/08/19 14:45:26;;;;;;;60.08;48.90;;;;;;;;;;5033251;28;20871;-86